x

Sentry Shoal (46131) Weather Station

2:00pm - Mon 6th Jul 2015 All times are PDT. -7 hours from GMT.

  • Peak Period 3s
  • Wind
    9mph, 11mph gusts
  • Sea Temp 62°f
  • 空気 Temp 64°f
  • Sea Pressure 1014.9mb
  • Sentry Shoal
  • Sentry Shoal

More Historic Weather Station data

Upgrade to MSW Pro to gain access to the past 30 days of data for over 8000 Wavebouys and Weather Stations around the globe.

Join Pro

Comparision Forecast

View Surf forecast
   
Mon 07/06 2:00pm  -  3s 9 11 mph 1014.9mb 62f 64f
1:00pm 0.3ft 2s 7
mph
1015.1mb 62f 63f
12:00pm 0.3ft 2s 7 9 mph 1015.1mb 62f 64f
11:00am  -  3s 4
mph
1015.1mb 62f 63f
10:00am  -  3s 2
mph
1014.9mb 60f 62f
9:00am 0.3ft 3s 2
mph
1014.5mb 59f 61f
8:00am 0.3ft 2s 2
mph
1014.2mb 58f 60f
7:00am 0.3ft 2s  -  mph 1013.6mb 58f 62f
6:00am  -  5s 2
mph
1012.9mb 58f 60f
5:00am  -  5s 4
mph
1012.6mb 58f 60f
4:00am  -  5s 2 4 mph 1012.2mb 59f 60f
3:00am  -  5s 7 9 mph 1011.8mb 59f 61f
2:00am  -  5s 4
mph
1011.5mb 59f 60f
1:00am  -  5s 7
mph
1011.2mb 59f 60f
12:00am 0.3ft 5s 4 7 mph 1011.1mb 59f 62f
Sun 07/05 11:00pm 0.3ft 4s 7
mph
1010.7mb 60f 62f
10:00pm 0.3ft 7s 4
mph
1010.4mb 61f 65f
9:00pm 0.7ft 7s 7
mph
1010.1mb 60f 62f
8:00pm 0.3ft 3s 2 4 mph 1010.1mb 59f 64f
7:00pm 0.3ft 4s 2 4 mph 1010.4mb 59f 64f
6:00pm 0.3ft 5s 7
mph
1010.5mb 60f 62f
5:00pm 0.3ft 6s 7 9 mph 1011.1mb 60f 61f
4:00pm 0.3ft 4s 7 9 mph 1011.3mb 59f 61f
3:00pm 0.3ft 4s 7 9 mph 1011.7mb 58f 61f
2:00pm 0.3ft 2s 7
mph
1012.1mb 57f 62f
1:00pm 0.3ft 4s 7
mph
1012.2mb 57f 62f
12:00pm 0.3ft 2s 7
mph
1012.4mb 56f 60f
11:00am 0.3ft 2s 4 7 mph 1012.4mb 56f 63f
10:00am 0.3ft 2s 7
mph
1012.1mb 56f 60f
9:00am 0.7ft 2s 9
mph
1012mb 55f 60f
8:00am 0.7ft 2s 13
mph
1011.8mb 55f 61f
7:00am 1ft 2s 16 18 mph 1011.4mb 55f 60f
6:00am 1ft 2s 16 18 mph 1011.2mb 55f 60f
5:00am 1ft 2s 13 16 mph 1011mb 55f 60f
4:00am 1ft 3s 13
mph
1011mb 56f 61f
3:00am 1ft 3s 13 16 mph 1010.6mb 56f 61f
2:00am 1ft 3s 16 18 mph 1010.1mb 55f 61f
1:00am 1ft 3s 13 16 mph 1009.7mb 55f 61f
12:00am 1ft 3s 11 13 mph 1009.6mb 55f 61f
Sat 07/04 11:00pm 1.3ft 3s 16
mph
1009.3mb 55f 63f
10:00pm 1ft 2s 18 20 mph 1008.9mb 53f 63f
9:00pm 1.3ft 3s 20 22 mph 1008.3mb 54f 65f
8:00pm 1.6ft 3s 20 22 mph 1008mb 56f 66f
7:00pm 2ft 3s 20 22 mph 1008.1mb 57f 69f
6:00pm 2ft 3s 20 22 mph 1008.3mb 57f 70f
5:00pm 1.6ft 3s 18 22 mph 1008.7mb 57f 69f
4:00pm 1.3ft 3s 20 22 mph 1009.3mb 57f 69f
3:00pm 1ft 3s 11 13 mph 1010.2mb 57f 68f
2:00pm 0.7ft 3s 18
mph
1010.6mb 57f 70f
1:00pm 0.7ft 2s 16 20 mph 1011.3mb 56f 69f
12:00pm 0.7ft 3s 13 16 mph 1011.7mb 56f 67f
11:00am 0.7ft 2s 9 11 mph 1012mb 56f 63f
10:00am 1.3ft 3s 16 18 mph 1012.3mb 55f 61f
9:00am 1.6ft 3s 18 25 mph 1012.3mb 55f 61f
6:00am 2ft 3s 22 27 mph 1011.9mb 55f 59f
5:00am 2ft 3s 22 27 mph 1011.7mb 55f 59f
4:00am 2ft 3s 25 29 mph 1011.6mb 55f 60f
3:00am 2ft 3s 22 27 mph 1011.8mb 56f 61f
2:00am 1.6ft 3s 16 18 mph 1012.4mb 56f 61f
1:00am 1.6ft 3s 20 22 mph 1011.9mb 56f 62f
12:00am 1.6ft 3s 16 18 mph 1012.3mb 55f 63f
Fri 07/03 11:00pm 2ft 3s 18 20 mph 1012.2mb 55f 64f
10:00pm 1.6ft 2s 25 29 mph 1011.3mb 56f 64f
9:00pm 1.6ft 3s 20 22 mph 1011.1mb 57f 65f
8:00pm 2ft 3s 20 22 mph 1011mb 57f 68f
7:00pm 2ft 3s 20 22 mph 1011mb 57f 71f
6:00pm 1.6ft 3s 22 25 mph 1011.2mb 57f 71f
5:00pm  -   -  22
mph
- - -
4:00pm 1.3ft 3s 13 16 mph 1012.7mb 57f 70f
3:00pm 1.3ft 3s 18 22 mph 1013.1mb 56f 70f
2:00pm 1.3ft 3s 20 25 mph 1013.7mb 56f 69f
1:00pm 1ft 4s 18 22 mph 1014.1mb 57f 66f
12:00pm 1ft 3s 16 18 mph 1014.9mb 57f 65f
11:00am 1.6ft 3s 20 22 mph 1014.9mb 56f 65f
9:00am 1.6ft 3s 20 22 mph 1015mb 56f 62f
8:00am 1.6ft 2s 22 27 mph 1015.1mb 55f 61f
7:00am 2ft 3s 20 25 mph 1014.9mb 55f 60f
6:00am 2ft 3s 20 25 mph 1014.8mb 55f 60f
5:00am 2ft 3s 20 25 mph 1014.5mb 55f 60f
4:00am 2ft 3s 20 25 mph 1014.5mb 55f 60f
3:00am 2ft 4s 22 27 mph 1014.4mb 56f 60f
2:00am 2ft 3s 20 22 mph 1014.8mb 56f 61f
1:00am 2ft 3s 18 20 mph 1015.2mb 55f 62f
12:00am 1.6ft 3s 20 25 mph 1014.9mb 55f 62f
Thu 07/02 11:00pm 1.6ft 3s 22 25 mph 1014.7mb 56f 64f